createdAt,value
2023-02-07T00:00:00.672Z,0.0
2023-02-07T00:05:00.660Z,0.0
2023-02-07T00:10:00.693Z,0.0
2023-02-07T00:15:00.656Z,0.0
2023-02-07T00:20:00.952Z,0.0
2023-02-07T00:25:00.644Z,0.0
2023-02-07T00:30:00.639Z,0.0
2023-02-07T00:35:00.625Z,0.0
2023-02-07T00:40:00.645Z,0.0
2023-02-07T00:45:00.625Z,0.0
2023-02-07T00:50:00.649Z,0.0
2023-02-07T00:55:00.617Z,0.0
2023-02-07T01:00:00.667Z,0.0
2023-02-07T01:05:00.883Z,0.0
2023-02-07T01:10:00.654Z,0.0
2023-02-07T01:15:00.732Z,0.0
2023-02-07T01:20:00.699Z,0.0
2023-02-07T01:25:00.621Z,0.0
2023-02-07T01:30:00.680Z,0.0
2023-02-07T01:35:00.744Z,0.0
2023-02-07T01:40:00.656Z,0.0
2023-02-07T01:45:00.655Z,0.0
2023-02-07T01:50:00.673Z,0.0
2023-02-07T01:55:00.633Z,0.0
2023-02-07T02:00:00.719Z,0.0
2023-02-07T02:05:00.668Z,0.0
2023-02-07T02:10:00.659Z,0.0
2023-02-07T02:15:00.681Z,0.0
2023-02-07T02:20:00.654Z,0.0
2023-02-07T02:25:00.684Z,0.0
2023-02-07T02:30:00.666Z,0.0
2023-02-07T02:35:00.622Z,0.0
2023-02-07T02:40:00.685Z,0.0
2023-02-07T02:45:00.642Z,0.0
2023-02-07T02:50:00.686Z,0.0
2023-02-07T02:55:00.822Z,0.0
2023-02-07T03:00:00.718Z,0.0
2023-02-07T03:05:00.870Z,0.0
2023-02-07T03:10:00.680Z,0.0
2023-02-07T03:15:00.619Z,0.0
2023-02-07T03:20:00.717Z,0.0
2023-02-07T03:25:00.690Z,0.0
2023-02-07T03:30:00.693Z,0.0
2023-02-07T03:35:00.619Z,0.0
2023-02-07T03:40:00.656Z,0.0
2023-02-07T03:45:00.621Z,0.0
2023-02-07T03:50:00.664Z,0.0
2023-02-07T03:55:00.686Z,1.8
2023-02-07T04:00:00.683Z,1.4
2023-02-07T04:05:00.642Z,1.8
2023-02-07T04:10:00.645Z,0.0
2023-02-07T04:15:00.611Z,0.0
2023-02-07T04:20:00.678Z,1.8
2023-02-07T04:25:00.642Z,0.0
2023-02-07T04:30:00.647Z,0.0
2023-02-07T04:35:00.655Z,0.0
2023-02-07T04:40:00.628Z,0.0
2023-02-07T04:45:00.605Z,0.0
2023-02-07T04:50:00.699Z,0.0
2023-02-07T04:55:00.666Z,0.0
2023-02-07T05:00:00.633Z,0.0
2023-02-07T05:05:00.596Z,0.0
2023-02-07T05:10:00.721Z,0.0
2023-02-07T05:15:00.672Z,0.0
2023-02-07T05:20:00.679Z,0.0
2023-02-07T05:25:00.706Z,0.0
2023-02-07T05:30:00.692Z,0.0
2023-02-07T05:35:00.875Z,0.0
2023-02-07T05:40:00.608Z,0.0
2023-02-07T05:45:00.654Z,0.0
2023-02-07T05:50:00.655Z,0.0
2023-02-07T05:55:00.671Z,0.0
2023-02-07T06:00:00.639Z,0.0
2023-02-07T06:05:00.618Z,0.0
2023-02-07T06:10:00.592Z,0.0
2023-02-07T06:15:00.627Z,0.0
2023-02-07T06:20:00.669Z,0.0
2023-02-07T06:25:00.626Z,0.0
2023-02-07T06:30:00.638Z,0.0
2023-02-07T06:35:00.658Z,0.0
2023-02-07T06:40:00.738Z,0.0
2023-02-07T06:45:00.602Z,0.0
2023-02-07T06:50:00.630Z,0.0
2023-02-07T06:55:00.636Z,0.0
2023-02-07T07:00:00.664Z,0.0
2023-02-07T07:05:00.666Z,0.0
2023-02-07T07:10:00.886Z,0.0
2023-02-07T07:15:00.594Z,0.0
2023-02-07T07:20:00.644Z,0.0
2023-02-07T07:25:00.653Z,0.0
2023-02-07T07:30:00.634Z,0.0
2023-02-07T07:35:00.754Z,0.0
2023-02-07T07:40:00.729Z,0.0
2023-02-07T07:45:00.689Z,0.0
2023-02-07T07:50:00.664Z,0.0
2023-02-07T07:55:00.654Z,0.0
2023-02-07T08:00:00.621Z,2.2
2023-02-07T08:05:00.702Z,0.0
2023-02-07T08:10:00.609Z,1.4
2023-02-07T08:15:00.648Z,2.2
2023-02-07T08:20:00.680Z,2.5
2023-02-07T08:25:00.606Z,2.2
2023-02-07T08:30:00.665Z,1.4
2023-02-07T08:35:00.715Z,2.9
2023-02-07T08:40:00.713Z,0.0
2023-02-07T08:45:00.675Z,1.4
2023-02-07T08:50:00.793Z,0.0
2023-02-07T08:55:00.714Z,0.0
2023-02-07T09:00:00.637Z,0.0
2023-02-07T09:05:00.657Z,0.0
2023-02-07T09:10:00.664Z,0.0
2023-02-07T09:15:00.656Z,1.4
2023-02-07T09:20:00.743Z,2.2
2023-02-07T09:25:00.646Z,2.5
2023-02-07T09:30:00.639Z,0.0
2023-02-07T09:35:00.666Z,0.0
2023-02-07T09:40:00.696Z,0.0
2023-02-07T09:45:01.715Z,0.0
2023-02-07T09:50:00.828Z,0.0
2023-02-07T09:55:00.721Z,1.8
2023-02-07T10:00:00.685Z,2.5
2023-02-07T10:05:00.840Z,3.2
2023-02-07T10:10:00.665Z,3.6
2023-02-07T10:15:00.590Z,0.0
2023-02-07T10:20:00.841Z,0.0
2023-02-07T10:25:00.747Z,0.0
2023-02-07T10:30:00.676Z,2.9
2023-02-07T10:35:00.854Z,2.5
2023-02-07T10:40:00.595Z,5.0
2023-02-07T10:45:00.658Z,5.0
2023-02-07T10:50:00.758Z,0.0
2023-02-07T10:55:00.634Z,5.0
2023-02-07T11:00:00.922Z,2.5
2023-02-07T11:05:00.790Z,3.2
2023-02-07T11:10:00.636Z,3.6
2023-02-07T11:15:00.683Z,2.2
2023-02-07T11:20:00.716Z,2.9
2023-02-07T11:25:00.663Z,0.0
2023-02-07T11:30:00.667Z,2.5
2023-02-07T11:35:00.698Z,1.4
2023-02-07T11:40:01.204Z,3.6
2023-02-07T11:45:00.659Z,4.0
2023-02-07T11:50:00.890Z,2.2
2023-02-07T11:55:00.663Z,5.4
2023-02-07T12:00:00.747Z,6.1
2023-02-07T12:05:00.936Z,4.3
2023-02-07T12:10:00.658Z,2.2
2023-02-07T12:15:00.651Z,8.6
2023-02-07T12:20:03.387Z,2.5
2023-02-07T12:25:00.583Z,2.5
2023-02-07T12:30:00.668Z,4.0
2023-02-07T12:35:00.728Z,2.2
2023-02-07T12:40:00.653Z,4.0
2023-02-07T12:45:00.588Z,4.7
2023-02-07T12:50:00.865Z,2.9
2023-02-07T12:55:00.632Z,5.0
2023-02-07T13:00:00.613Z,5.4
2023-02-07T13:10:00.676Z,1.4
2023-02-07T13:15:00.671Z,3.2
2023-02-07T13:20:00.695Z,3.6
2023-02-07T13:25:00.671Z,0.0
2023-02-07T13:30:00.616Z,5.4
2023-02-07T13:35:00.645Z,2.9
2023-02-07T13:40:00.642Z,0.0
2023-02-07T13:45:00.644Z,1.4
2023-02-07T13:50:00.785Z,0.0
2023-02-07T13:55:00.673Z,3.6
2023-02-07T14:00:00.661Z,2.9
2023-02-07T14:05:00.881Z,2.2
2023-02-07T14:10:00.727Z,5.0
2023-02-07T14:15:03.691Z,5.8
2023-02-07T14:20:00.686Z,1.8
2023-02-07T14:25:00.627Z,2.2
2023-02-07T14:30:00.758Z,2.2
2023-02-07T14:35:00.735Z,2.2
2023-02-07T14:40:01.610Z,2.9
2023-02-07T14:45:00.627Z,3.2
2023-02-07T14:50:00.692Z,3.6
2023-02-07T14:55:00.642Z,0.0
2023-02-07T15:00:00.686Z,0.0
2023-02-07T15:05:00.619Z,2.5
2023-02-07T15:10:00.660Z,2.2
2023-02-07T15:15:00.702Z,1.8
2023-02-07T15:20:00.625Z,0.0
2023-02-07T15:25:00.641Z,1.4
2023-02-07T15:30:00.885Z,0.0
2023-02-07T15:35:02.625Z,0.0
2023-02-07T15:40:00.756Z,0.0
2023-02-07T15:45:00.766Z,0.0
2023-02-07T15:50:00.717Z,0.0
2023-02-07T15:55:00.653Z,0.0
2023-02-07T16:00:00.778Z,0.0
2023-02-07T16:05:00.656Z,0.0
2023-02-07T16:10:02.623Z,0.0
2023-02-07T16:15:02.112Z,0.0
2023-02-07T16:20:00.709Z,0.0
2023-02-07T16:25:00.641Z,0.0
2023-02-07T16:30:00.820Z,0.0
2023-02-07T16:35:00.749Z,0.0
2023-02-07T16:40:00.723Z,1.4
2023-02-07T16:45:00.809Z,0.0
2023-02-07T16:50:00.651Z,0.0
2023-02-07T16:55:00.650Z,0.0
2023-02-07T17:00:00.839Z,0.0
2023-02-07T17:05:00.681Z,0.0
2023-02-07T17:10:00.618Z,0.0
2023-02-07T17:15:00.621Z,0.0
2023-02-07T17:20:02.627Z,0.0
2023-02-07T17:25:00.696Z,0.0
2023-02-07T17:30:00.724Z,0.0
2023-02-07T17:35:02.626Z,0.0
2023-02-07T17:40:00.658Z,0.0
2023-02-07T17:45:00.723Z,0.0
2023-02-07T17:50:00.709Z,0.0
2023-02-07T17:55:00.648Z,0.0
2023-02-07T18:00:00.892Z,0.0
2023-02-07T18:05:00.593Z,0.0
2023-02-07T18:10:00.716Z,0.0
2023-02-07T18:15:00.623Z,1.8
2023-02-07T18:20:00.715Z,2.5
2023-02-07T18:25:00.647Z,0.0
2023-02-07T18:30:00.651Z,0.0
2023-02-07T18:35:00.657Z,0.0
2023-02-07T18:40:00.834Z,0.0
2023-02-07T18:45:00.642Z,0.0
2023-02-07T18:50:01.030Z,0.0
2023-02-07T18:55:00.608Z,0.0
2023-02-07T19:00:00.995Z,0.0
2023-02-07T19:05:00.672Z,0.0
2023-02-07T19:10:00.649Z,0.0
2023-02-07T19:15:00.659Z,0.0
2023-02-07T19:20:00.681Z,0.0
2023-02-07T19:25:02.697Z,0.0
2023-02-07T19:30:00.657Z,0.0
2023-02-07T19:35:00.647Z,0.0
2023-02-07T19:40:00.690Z,0.0
2023-02-07T19:45:00.639Z,0.0
2023-02-07T19:50:00.695Z,0.0
2023-02-07T19:55:00.696Z,0.0
2023-02-07T20:00:00.707Z,0.0
2023-02-07T20:05:00.631Z,0.0
2023-02-07T20:10:00.657Z,0.0
2023-02-07T20:15:00.619Z,0.0
2023-02-07T20:20:00.880Z,0.0
2023-02-07T20:25:00.632Z,0.0
2023-02-07T20:30:00.652Z,1.8
2023-02-07T20:35:00.662Z,0.0
2023-02-07T20:40:00.722Z,0.0
2023-02-07T20:45:00.618Z,0.0
2023-02-07T20:50:00.644Z,0.0
2023-02-07T20:55:00.682Z,0.0
2023-02-07T21:00:00.671Z,0.0
2023-02-07T21:05:00.754Z,0.0
2023-02-07T21:10:01.213Z,0.0
2023-02-07T21:15:00.638Z,1.8
2023-02-07T21:20:00.666Z,0.0
2023-02-07T21:25:00.640Z,0.0
2023-02-07T21:30:00.647Z,0.0
2023-02-07T21:35:02.628Z,0.0
2023-02-07T21:40:00.665Z,0.0
2023-02-07T21:45:00.711Z,0.0
2023-02-07T21:50:00.638Z,0.0
2023-02-07T21:55:00.601Z,0.0
2023-02-07T22:00:00.681Z,0.0
2023-02-07T22:05:00.760Z,0.0
2023-02-07T22:10:00.638Z,0.0
2023-02-07T22:15:00.660Z,0.0
2023-02-07T22:20:00.634Z,0.0
2023-02-07T22:25:00.641Z,0.0
2023-02-07T22:30:03.316Z,0.0
2023-02-07T22:35:00.622Z,0.0
2023-02-07T22:40:00.663Z,0.0
2023-02-07T22:45:00.629Z,0.0
2023-02-07T22:50:00.673Z,0.0
2023-02-07T22:55:00.596Z,0.0
2023-02-07T23:00:00.677Z,0.0
2023-02-07T23:05:00.629Z,0.0
2023-02-07T23:10:00.662Z,0.0
2023-02-07T23:15:00.668Z,0.0
2023-02-07T23:20:00.654Z,0.0
2023-02-07T23:25:00.635Z,0.0
2023-02-07T23:30:00.657Z,0.0
2023-02-07T23:35:00.735Z,0.0
2023-02-07T23:40:00.703Z,0.0
2023-02-07T23:45:00.623Z,0.0
2023-02-07T23:50:00.635Z,0.0
2023-02-07T23:55:00.627Z,0.0
